sensor_id;sensor_type;location;lat;lon;timestamp;pressure;altitude;pressure_sealevel;temperature;humidity
36304;BME280;22335;49.800;8.596;2022-11-11T00:03:44;101982.38;;;14.23;52.07
36304;BME280;22335;49.800;8.596;2022-11-11T00:10:48;101960.00;;;13.99;52.08
36304;BME280;22335;49.800;8.596;2022-11-11T00:17:55;101972.94;;;13.94;52.09
36304;BME280;22335;49.800;8.596;2022-11-11T00:25:13;101979.00;;;13.96;52.10
36304;BME280;22335;49.800;8.596;2022-11-11T00:32:18;101986.94;;;13.82;51.96
36304;BME280;22335;49.800;8.596;2022-11-11T00:39:29;101995.72;;;13.79;52.17
36304;BME280;22335;49.800;8.596;2022-11-11T00:46:33;102007.81;;;13.83;52.29
36304;BME280;22335;49.800;8.596;2022-11-11T00:53:50;101995.94;;;13.67;52.31
36304;BME280;22335;49.800;8.596;2022-11-11T01:00:56;102018.72;;;13.63;52.32
36304;BME280;22335;49.800;8.596;2022-11-11T01:08:01;102028.94;;;13.67;52.30
36304;BME280;22335;49.800;8.596;2022-11-11T01:15:06;102014.84;;;13.53;52.34
36304;BME280;22335;49.800;8.596;2022-11-11T01:22:13;102031.94;;;13.66;52.50
36304;BME280;22335;49.800;8.596;2022-11-11T01:29:17;102014.31;;;13.61;52.25
36304;BME280;22335;49.800;8.596;2022-11-11T01:36:23;102017.06;;;13.61;52.27
36304;BME280;22335;49.800;8.596;2022-11-11T01:43:32;102006.03;;;13.51;52.34
36304;BME280;22335;49.800;8.596;2022-11-11T01:50:36;102015.91;;;13.52;52.31
36304;BME280;22335;49.800;8.596;2022-11-11T01:57:44;102000.19;;;13.43;52.47
36304;BME280;22335;49.800;8.596;2022-11-11T02:04:55;102000.94;;;13.28;52.47
36304;BME280;22335;49.800;8.596;2022-11-11T02:12:13;102006.47;;;13.33;52.28
36304;BME280;22335;49.800;8.596;2022-11-11T02:19:34;101982.72;;;13.17;52.59
36304;BME280;22335;49.800;8.596;2022-11-11T02:26:45;101954.28;;;12.96;52.49
36304;BME280;22335;49.800;8.596;2022-11-11T02:33:57;102005.81;;;13.21;52.36
36304;BME280;22335;49.800;8.596;2022-11-11T02:41:01;101998.38;;;13.21;52.56
36304;BME280;22335;49.800;8.596;2022-11-11T02:48:20;101993.16;;;13.20;52.45
36304;BME280;22335;49.800;8.596;2022-11-11T02:55:25;101997.28;;;13.22;52.18
36304;BME280;22335;49.800;8.596;2022-11-11T03:02:29;102020.31;;;13.11;51.82
36304;BME280;22335;49.800;8.596;2022-11-11T03:09:37;102022.06;;;12.90;51.99
36304;BME280;22335;49.800;8.596;2022-11-11T03:16:40;102038.47;;;12.85;52.01
36304;BME280;22335;49.800;8.596;2022-11-11T03:24:12;102047.28;;;12.87;52.18
36304;BME280;22335;49.800;8.596;2022-11-11T03:31:19;102038.91;;;12.72;52.15
36304;BME280;22335;49.800;8.596;2022-11-11T03:38:23;102060.28;;;12.69;52.15
36304;BME280;22335;49.800;8.596;2022-11-11T04:06:33;102088.31;;;12.22;52.99
36304;BME280;22335;49.800;8.596;2022-11-11T04:13:50;102096.31;;;12.24;53.24
36304;BME280;22335;49.800;8.596;2022-11-11T04:21:07;102103.13;;;12.21;53.35
36304;BME280;22335;49.800;8.596;2022-11-11T04:28:26;102107.28;;;12.24;53.65
36304;BME280;22335;49.800;8.596;2022-11-11T04:35:47;102086.28;;;12.13;53.82
36304;BME280;22335;49.800;8.596;2022-11-11T04:42:52;102095.41;;;12.18;53.86
36304;BME280;22335;49.800;8.596;2022-11-11T04:49:58;102109.53;;;12.27;54.25
36304;BME280;22335;49.800;8.596;2022-11-11T04:57:07;102093.88;;;12.28;53.89
36304;BME280;22335;49.800;8.596;2022-11-11T05:04:11;102088.63;;;12.26;54.05
36304;BME280;22335;49.800;8.596;2022-11-11T05:11:18;102093.06;;;12.27;54.33
36304;BME280;22335;49.800;8.596;2022-11-11T05:18:22;102082.31;;;12.26;54.06
36304;BME280;22335;49.800;8.596;2022-11-11T05:25:39;102082.47;;;12.36;54.08
36304;BME280;22335;49.800;8.596;2022-11-11T05:32:46;102075.72;;;12.21;54.25
36304;BME280;22335;49.800;8.596;2022-11-11T05:39:50;102094.13;;;12.26;54.16
36304;BME280;22335;49.800;8.596;2022-11-11T05:46:55;102111.06;;;12.18;53.97
36304;BME280;22335;49.800;8.596;2022-11-11T05:54:01;102110.97;;;12.13;54.21
36304;BME280;22335;49.800;8.596;2022-11-11T06:01:05;102133.25;;;12.16;54.27
36304;BME280;22335;49.800;8.596;2022-11-11T06:08:10;102124.50;;;12.19;54.16
36304;BME280;22335;49.800;8.596;2022-11-11T06:15:17;102127.31;;;12.25;53.95
36304;BME280;22335;49.800;8.596;2022-11-11T06:22:21;102144.16;;;12.33;53.95
36304;BME280;22335;49.800;8.596;2022-11-11T06:29:46;102145.75;;;12.29;54.26
36304;BME280;22335;49.800;8.596;2022-11-11T06:36:53;102177.41;;;12.37;54.47
36304;BME280;22335;49.800;8.596;2022-11-11T06:43:57;102184.88;;;12.41;54.20
36304;BME280;22335;49.800;8.596;2022-11-11T06:51:03;102177.59;;;12.30;54.39
36304;BME280;22335;49.800;8.596;2022-11-11T06:58:12;102174.16;;;12.18;54.57
36304;BME280;22335;49.800;8.596;2022-11-11T07:05:18;102166.38;;;11.93;54.72
36304;BME280;22335;49.800;8.596;2022-11-11T07:12:22;102192.84;;;12.04;54.78
36304;BME280;22335;49.800;8.596;2022-11-11T07:19:29;102205.41;;;12.00;54.94
36304;BME280;22335;49.800;8.596;2022-11-11T07:26:33;102187.50;;;11.92;54.90
36304;BME280;22335;49.800;8.596;2022-11-11T07:33:37;102205.41;;;11.83;55.17
36304;BME280;22335;49.800;8.596;2022-11-11T07:40:44;102201.50;;;11.79;55.34
36304;BME280;22335;49.800;8.596;2022-11-11T07:47:48;102214.00;;;11.87;55.30
36304;BME280;22335;49.800;8.596;2022-11-11T07:54:52;102232.03;;;11.99;55.50
36304;BME280;22335;49.800;8.596;2022-11-11T08:01:58;102211.00;;;11.88;55.74
36304;BME280;22335;49.800;8.596;2022-11-11T08:09:02;102225.84;;;11.75;55.82
36304;BME280;22335;49.800;8.596;2022-11-11T08:16:07;102243.13;;;11.76;56.13
36304;BME280;22335;49.800;8.596;2022-11-11T08:23:13;102238.47;;;11.76;56.56
36304;BME280;22335;49.800;8.596;2022-11-11T08:30:44;102246.81;;;11.98;56.52
36304;BME280;22335;49.800;8.596;2022-11-11T08:37:48;102246.03;;;12.20;56.51
36304;BME280;22335;49.800;8.596;2022-11-11T08:44:54;102235.78;;;12.32;56.72
36304;BME280;22335;49.800;8.596;2022-11-11T08:51:58;102254.28;;;12.59;56.41
36304;BME280;22335;49.800;8.596;2022-11-11T08:59:02;102253.44;;;12.58;56.61
36304;BME280;22335;49.800;8.596;2022-11-11T09:06:10;102260.78;;;12.75;56.77
36304;BME280;22335;49.800;8.596;2022-11-11T09:13:14;102259.00;;;12.85;56.59
36304;BME280;22335;49.800;8.596;2022-11-11T09:20:18;102276.19;;;12.98;56.27
36304;BME280;22335;49.800;8.596;2022-11-11T09:27:27;102231.38;;;12.97;56.59
36304;BME280;22335;49.800;8.596;2022-11-11T09:34:31;102235.91;;;13.08;56.49
36304;BME280;22335;49.800;8.596;2022-11-11T09:41:46;102236.03;;;13.19;56.82
36304;BME280;22335;49.800;8.596;2022-11-11T09:49:25;102244.09;;;13.03;56.93
36304;BME280;22335;49.800;8.596;2022-11-11T09:56:51;102236.84;;;12.92;57.18
36304;BME280;22335;49.800;8.596;2022-11-11T10:03:59;102218.25;;;12.77;57.37
36304;BME280;22335;49.800;8.596;2022-11-11T10:11:17;102216.66;;;12.81;57.69
36304;BME280;22335;49.800;8.596;2022-11-11T10:18:38;102230.69;;;13.07;57.50
36304;BME280;22335;49.800;8.596;2022-11-11T10:25:53;102225.75;;;13.09;57.50
36304;BME280;22335;49.800;8.596;2022-11-11T10:33:03;102220.13;;;13.21;57.71
36304;BME280;22335;49.800;8.596;2022-11-11T10:40:16;102219.19;;;13.37;57.46
36304;BME280;22335;49.800;8.596;2022-11-11T10:47:31;102212.16;;;13.46;57.13
36304;BME280;22335;49.800;8.596;2022-11-11T10:54:49;102176.56;;;13.34;57.24
36304;BME280;22335;49.800;8.596;2022-11-11T11:02:00;102193.56;;;13.58;57.36
36304;BME280;22335;49.800;8.596;2022-11-11T11:09:13;102219.47;;;13.68;57.17
36304;BME280;22335;49.800;8.596;2022-11-11T11:16:26;102186.13;;;13.59;57.46
36304;BME280;22335;49.800;8.596;2022-11-11T11:23:39;102199.53;;;13.82;57.49
36304;BME280;22335;49.800;8.596;2022-11-11T11:30:51;102203.06;;;14.20;56.54
36304;BME280;22335;49.800;8.596;2022-11-11T11:38:05;102190.56;;;13.97;57.17
36304;BME280;22335;49.800;8.596;2022-11-11T11:45:22;102200.22;;;14.05;57.38
36304;BME280;22335;49.800;8.596;2022-11-11T11:52:35;102176.28;;;14.00;57.24
36304;BME280;22335;49.800;8.596;2022-11-11T11:59:52;102196.69;;;14.15;57.42
36304;BME280;22335;49.800;8.596;2022-11-11T12:07:11;102189.31;;;14.20;57.33
36304;BME280;22335;49.800;8.596;2022-11-11T12:14:41;102193.50;;;14.28;57.44
36304;BME280;22335;49.800;8.596;2022-11-11T12:22:05;102178.63;;;14.29;57.58
36304;BME280;22335;49.800;8.596;2022-11-11T12:29:30;102188.28;;;14.37;57.34
36304;BME280;22335;49.800;8.596;2022-11-11T12:36:52;102191.81;;;14.22;57.26
36304;BME280;22335;49.800;8.596;2022-11-11T12:44:04;102200.91;;;14.22;57.50
36304;BME280;22335;49.800;8.596;2022-11-11T12:51:16;102182.44;;;14.23;57.63
36304;BME280;22335;49.800;8.596;2022-11-11T12:58:37;102190.75;;;14.33;57.70
36304;BME280;22335;49.800;8.596;2022-11-11T13:05:49;102191.63;;;14.39;57.40
36304;BME280;22335;49.800;8.596;2022-11-11T13:13:10;102185.03;;;14.45;57.56
36304;BME280;22335;49.800;8.596;2022-11-11T13:20:43;102190.88;;;14.53;57.58
36304;BME280;22335;49.800;8.596;2022-11-11T13:27:55;102176.84;;;14.55;57.50
36304;BME280;22335;49.800;8.596;2022-11-11T13:35:14;102173.03;;;14.66;57.67
36304;BME280;22335;49.800;8.596;2022-11-11T13:42:27;102158.44;;;14.66;57.65
36304;BME280;22335;49.800;8.596;2022-11-11T13:49:37;102154.59;;;14.77;57.38
36304;BME280;22335;49.800;8.596;2022-11-11T13:56:46;102162.09;;;14.87;57.74
36304;BME280;22335;49.800;8.596;2022-11-11T14:04:03;102162.34;;;14.85;57.59
36304;BME280;22335;49.800;8.596;2022-11-11T14:11:26;102164.53;;;14.78;57.67
36304;BME280;22335;49.800;8.596;2022-11-11T14:18:38;102181.91;;;14.79;57.38
36304;BME280;22335;49.800;8.596;2022-11-11T14:25:48;102171.63;;;14.53;57.68
36304;BME280;22335;49.800;8.596;2022-11-11T14:32:56;102189.13;;;14.37;57.85
36304;BME280;22335;49.800;8.596;2022-11-11T14:40:09;102177.97;;;14.12;58.48
36304;BME280;22335;49.800;8.596;2022-11-11T14:47:36;102175.69;;;13.98;58.60
36304;BME280;22335;49.800;8.596;2022-11-11T14:54:57;102176.56;;;14.04;58.54
36304;BME280;22335;49.800;8.596;2022-11-11T15:02:25;102188.97;;;14.06;58.66
36304;BME280;22335;49.800;8.596;2022-11-11T15:09:50;102183.72;;;14.05;58.66
36304;BME280;22335;49.800;8.596;2022-11-11T15:17:23;102176.56;;;14.04;58.68
36304;BME280;22335;49.800;8.596;2022-11-11T15:24:39;102164.78;;;14.14;58.48
36304;BME280;22335;49.800;8.596;2022-11-11T15:31:57;102173.66;;;14.26;58.46
36304;BME280;22335;49.800;8.596;2022-11-11T15:39:10;102159.66;;;14.33;57.99
36304;BME280;22335;49.800;8.596;2022-11-11T15:46:23;102162.38;;;14.27;58.31
36304;BME280;22335;49.800;8.596;2022-11-11T15:53:29;102180.47;;;14.18;58.56
36304;BME280;22335;49.800;8.596;2022-11-11T16:00:33;102178.06;;;14.22;58.61
36304;BME280;22335;49.800;8.596;2022-11-11T16:07:42;102162.06;;;14.19;58.61
36304;BME280;22335;49.800;8.596;2022-11-11T16:14:48;102164.28;;;14.22;58.60
36304;BME280;22335;49.800;8.596;2022-11-11T16:21:59;102166.50;;;14.30;58.68
36304;BME280;22335;49.800;8.596;2022-11-11T16:29:13;102167.28;;;14.20;58.75
36304;BME280;22335;49.800;8.596;2022-11-11T16:36:18;102186.94;;;14.39;58.51
36304;BME280;22335;49.800;8.596;2022-11-11T16:43:24;102193.91;;;14.52;58.56
36304;BME280;22335;49.800;8.596;2022-11-11T16:50:31;102186.44;;;14.47;58.45
36304;BME280;22335;49.800;8.596;2022-11-11T16:57:41;102185.84;;;14.45;58.50
36304;BME280;22335;49.800;8.596;2022-11-11T17:04:45;102168.50;;;14.45;58.64
36304;BME280;22335;49.800;8.596;2022-11-11T17:11:52;102165.50;;;14.46;58.55
36304;BME280;22335;49.800;8.596;2022-11-11T17:18:58;102177.69;;;14.61;58.37
36304;BME280;22335;49.800;8.596;2022-11-11T17:26:03;102160.38;;;14.65;58.44
36304;BME280;22335;49.800;8.596;2022-11-11T17:33:09;102163.66;;;14.62;58.43
36304;BME280;22335;49.800;8.596;2022-11-11T17:40:13;102166.69;;;14.71;58.21
36304;BME280;22335;49.800;8.596;2022-11-11T17:47:18;102177.50;;;14.83;57.99
36304;BME280;22335;49.800;8.596;2022-11-11T17:54:24;102172.03;;;15.03;57.61
36304;BME280;22335;49.800;8.596;2022-11-11T18:01:29;102183.88;;;15.04;57.85
36304;BME280;22335;49.800;8.596;2022-11-11T18:08:33;102178.06;;;14.95;57.90
36304;BME280;22335;49.800;8.596;2022-11-11T18:15:40;102183.06;;;15.03;57.69
36304;BME280;22335;49.800;8.596;2022-11-11T18:22:44;102201.53;;;15.13;57.63
36304;BME280;22335;49.800;8.596;2022-11-11T18:29:48;102217.81;;;15.14;57.72
36304;BME280;22335;49.800;8.596;2022-11-11T18:36:54;102212.28;;;15.09;57.69
36304;BME280;22335;49.800;8.596;2022-11-11T18:43:58;102197.94;;;14.97;57.60
36304;BME280;22335;49.800;8.596;2022-11-11T18:51:03;102197.91;;;14.92;57.80
36304;BME280;22335;49.800;8.596;2022-11-11T18:58:10;102209.19;;;14.95;58.15
36304;BME280;22335;49.800;8.596;2022-11-11T19:05:14;102203.13;;;14.88;57.99
36304;BME280;22335;49.800;8.596;2022-11-11T19:12:20;102208.34;;;14.85;57.90
36304;BME280;22335;49.800;8.596;2022-11-11T19:19:27;102200.88;;;14.75;58.33
36304;BME280;22335;49.800;8.596;2022-11-11T19:26:32;102213.59;;;14.81;58.01
36304;BME280;22335;49.800;8.596;2022-11-11T19:33:37;102211.09;;;14.74;58.04
36304;BME280;22335;49.800;8.596;2022-11-11T19:40:46;102203.34;;;14.71;58.06
36304;BME280;22335;49.800;8.596;2022-11-11T19:47:50;102201.91;;;14.53;58.02
36304;BME280;22335;49.800;8.596;2022-11-11T19:54:54;102210.16;;;14.53;58.09
36304;BME280;22335;49.800;8.596;2022-11-11T20:02:01;102210.34;;;14.42;58.00
36304;BME280;22335;49.800;8.596;2022-11-11T20:09:07;102190.44;;;14.24;57.91
36304;BME280;22335;49.800;8.596;2022-11-11T20:16:14;102215.00;;;14.36;58.18
36304;BME280;22335;49.800;8.596;2022-11-11T20:23:21;102225.47;;;14.39;58.21
36304;BME280;22335;49.800;8.596;2022-11-11T20:30:25;102226.47;;;14.65;57.55
36304;BME280;22335;49.800;8.596;2022-11-11T20:37:29;102227.66;;;14.32;58.12
36304;BME280;22335;49.800;8.596;2022-11-11T20:44:35;102233.41;;;14.30;58.04
36304;BME280;22335;49.800;8.596;2022-11-11T20:51:39;102227.25;;;14.13;57.94
36304;BME280;22335;49.800;8.596;2022-11-11T20:58:43;102233.53;;;14.08;57.92
36304;BME280;22335;49.800;8.596;2022-11-11T21:05:50;102240.06;;;13.97;58.03
36304;BME280;22335;49.800;8.596;2022-11-11T21:12:54;102233.13;;;13.90;58.06
36304;BME280;22335;49.800;8.596;2022-11-11T21:19:58;102238.09;;;13.88;57.91
36304;BME280;22335;49.800;8.596;2022-11-11T21:27:04;102232.19;;;13.74;58.13
36304;BME280;22335;49.800;8.596;2022-11-11T21:34:10;102203.13;;;13.51;58.16
36304;BME280;22335;49.800;8.596;2022-11-11T21:41:17;102220.59;;;13.67;57.91
36304;BME280;22335;49.800;8.596;2022-11-11T21:48:24;102231.06;;;13.75;58.08
36304;BME280;22335;49.800;8.596;2022-11-11T21:55:29;102205.69;;;13.63;57.93
36304;BME280;22335;49.800;8.596;2022-11-11T22:02:33;102215.63;;;13.69;57.91
36304;BME280;22335;49.800;8.596;2022-11-11T22:09:40;102215.03;;;13.61;57.93
36304;BME280;22335;49.800;8.596;2022-11-11T22:16:44;102213.03;;;13.52;58.01
36304;BME280;22335;49.800;8.596;2022-11-11T22:23:50;102216.16;;;13.33;58.05
36304;BME280;22335;49.800;8.596;2022-11-11T22:31:05;102221.78;;;13.22;58.12
36304;BME280;22335;49.800;8.596;2022-11-11T22:38:10;102225.91;;;13.24;58.15
36304;BME280;22335;49.800;8.596;2022-11-11T22:45:14;102210.47;;;13.18;57.85
36304;BME280;22335;49.800;8.596;2022-11-11T22:52:21;102190.34;;;13.12;57.95
36304;BME280;22335;49.800;8.596;2022-11-11T22:59:25;102201.97;;;13.20;57.86
36304;BME280;22335;49.800;8.596;2022-11-11T23:06:32;102202.50;;;13.17;58.15
36304;BME280;22335;49.800;8.596;2022-11-11T23:13:43;102208.94;;;13.27;57.96
36304;BME280;22335;49.800;8.596;2022-11-11T23:20:52;102174.69;;;13.13;58.04
36304;BME280;22335;49.800;8.596;2022-11-11T23:27:57;102181.22;;;13.29;57.97
36304;BME280;22335;49.800;8.596;2022-11-11T23:35:04;102193.59;;;13.31;58.00
36304;BME280;22335;49.800;8.596;2022-11-11T23:42:08;102194.06;;;13.50;57.33
36304;BME280;22335;49.800;8.596;2022-11-11T23:49:12;102195.91;;;13.18;57.85
36304;BME280;22335;49.800;8.596;2022-11-11T23:56:18;102219.94;;;13.27;58.08
